KCNM/CNM METAR and TAF weather

Enter ICAO airport designator
Station Type Date Time Source
KCNM METAR 2018/12/10 20:09 UTC NOAA

KCNM 102009Z AUTO VRB04KT 7SM SCT005 04/01 A3031 RMK AO2 T00440011


Station Type Date Time Source
KCNM Decoded METAR 2018/12/10 20:09 UTC NOAA

CARLSBAD CAVERN CITY, NM, United States (KCNM) 32-20N 104-16W 985M
Dec 10, 2018 - 03:09 PM EST / 2018.12.10 2009 UTC
Wind: Variable at 5 MPH (4 KT):0
Visibility: 7 mile(s):0
Sky conditions: partly cloudy
Temperature: 39.9 F (4.4 C)
Dew Point: 34.0 F (1.1 C)
Relative Humidity: 79%
Pressure (altimeter): 30.31 in. Hg (1026 hPa)
ob: KCNM 102009Z AUTO VRB04KT 7SM SCT005 04/01 A3031 RMK AO2 T00440011
cycle: 20

Station Type Date Time Source
KCNM TAF 2018/12/10 19:59 UTC NOAA

TAF
AMD KCNM 101859Z 1019/1118 VRB04KT P6SM BKN005
FM102000 15005KT P6SM SCT010 SCT250
FM110500 17005KT 3SM BR SCT005
FM110900 16003KT 1SM BR OVC005
TEMPO 1111/1115 1/4SM FG VV003


Example: see airport list